Time;durP1;ratioP1;P1;durP2;ratioP2;P2;SDS_P1;SDS_P2;PMS_P1;PMS_P2;Temp;Humidity;BMP_temperature;BMP_pressure;BME280_temperature;BME280_humidity;BME280_pressure;Samples;Min_cycle;Max_cycle;Signal;HPM_P1;HPM_P2
2022/09/15 00:02:11;;;;;;;16.57;5.27;;;19.50;90.80;;;19.96;58.43;94812.91;6177156;23;20914;-53
2022/09/15 00:04:40;;;;;;;10.00;4.80;;;19.50;91.20;;;19.94;58.15;94805.13;6178071;23;20426;-53
2022/09/15 00:07:07;;;;;;;12.77;4.63;;;19.50;91.20;;;19.93;58.30;94802.63;6177825;23;20408;-55
2022/09/15 00:09:35;;;;;;;10.50;5.50;;;19.50;91.50;;;19.92;58.33;94800.97;6178035;23;21062;-54
2022/09/15 00:12:02;;;;;;;10.20;5.53;;;19.40;91.20;;;19.88;57.71;94806.72;6177755;23;20931;-55
2022/09/15 00:14:30;;;;;;;13.43;5.80;;;19.40;90.80;;;19.85;57.88;94812.47;6178195;23;20425;-55
2022/09/15 00:16:57;;;;;;;14.17;5.57;;;19.40;91.10;;;19.84;58.02;94796.63;6178458;23;20899;-55
2022/09/15 00:19:24;;;;;;;13.27;5.43;;;19.40;91.30;;;19.83;58.63;94808.31;6178505;23;20422;-55
2022/09/15 00:21:53;;;;;;;9.63;6.20;;;19.30;91.60;;;19.80;58.52;94812.25;6178028;23;20409;-56
2022/09/15 00:24:20;;;;;;;15.60;6.40;;;19.30;91.70;;;19.78;58.87;94818.78;6178045;23;20417;-52
2022/09/15 00:26:47;;;;;;;9.23;6.70;;;19.30;91.80;;;19.77;58.27;94807.28;6178105;23;20907;-55
2022/09/15 00:29:14;;;;;;;21.93;6.40;;;19.30;91.60;;;19.74;58.02;94806.84;6177380;23;20441;-55
2022/09/15 00:31:42;;;;;;;8.03;6.30;;;19.30;91.30;;;19.68;58.33;94789.78;6177384;23;20466;-54
2022/09/15 00:34:12;;;;;;;8.50;5.87;;;19.20;91.50;;;19.64;58.03;94796.53;6177658;23;20437;-54
2022/09/15 00:36:39;;;;;;;8.13;5.80;;;19.20;91.20;;;19.63;58.53;94800.22;6178583;23;20407;-54
2022/09/15 00:39:08;;;;;;;14.73;5.93;;;19.10;91.80;;;19.61;58.64;94803.09;6177316;23;20471;-54
2022/09/15 00:41:35;;;;;;;14.23;5.77;;;19.10;92.10;;;19.60;58.67;94793.44;6177347;23;20405;-52
2022/09/15 00:44:04;;;;;;;7.67;4.77;;;19.10;92.00;;;19.57;57.97;94798.34;6177183;23;20921;-55
2022/09/15 00:46:33;;;;;;;11.37;5.03;;;19.10;91.80;;;19.54;58.32;94794.22;6178010;23;20481;-57
2022/09/15 00:49:03;;;;;;;10.60;5.37;;;19.10;91.70;;;19.53;58.21;94797.91;6177041;23;20425;-53
2022/09/15 00:51:35;;;;;;;6.77;4.00;;;19.10;91.90;;;19.51;58.15;94794.63;6177636;23;20480;-55
2022/09/15 00:54:07;;;;;;;7.77;4.40;;;19.00;91.60;;;19.51;58.91;94794.63;6177705;23;20819;-54
2022/09/15 00:56:34;;;;;;;12.07;5.30;;;19.10;92.00;;;19.50;58.06;94798.28;6178154;23;20453;-53
2022/09/15 00:59:05;;;;;;;8.50;4.80;;;19.00;91.80;;;19.51;58.41;94799.94;6177107;23;20437;-55
2022/09/15 01:01:32;;;;;;;5.47;4.00;;;19.00;91.80;;;19.48;57.44;94792.34;6178059;23;20390;-56
2022/09/15 01:03:59;;;;;;;7.33;3.67;;;19.00;91.30;;;19.47;57.55;94791.53;6177525;23;20708;-55
2022/09/15 01:06:30;;;;;;;9.63;3.50;;;19.00;91.30;;;19.48;57.19;94801.16;6177638;23;20455;-56
2022/09/15 01:09:02;;;;;;;8.63;2.53;;;19.00;91.20;;;19.46;56.86;94789.06;6177026;23;20500;-55
2022/09/15 01:11:30;;;;;;;6.93;3.27;;;19.00;90.60;;;19.43;56.63;94792.94;6176718;23;20405;-55
2022/09/15 01:13:57;;;;;;;3.63;2.47;;;19.00;90.60;;;19.41;56.98;94794.13;6176897;23;20549;-55
2022/09/15 01:16:31;;;;;;;12.03;2.93;;;19.00;90.50;;;19.37;56.32;94788.38;6177431;23;20402;-55
2022/09/15 01:19:05;;;;;;;5.57;3.00;;;18.90;90.30;;;19.35;56.79;94791.25;6177082;23;20973;-56
2022/09/15 01:21:38;;;;;;;7.60;2.73;;;18.90;90.40;;;19.33;56.72;94787.97;6177297;23;20463;-55
2022/09/15 01:24:41;;;;;;;3.83;3.20;;;18.90;90.20;;;19.30;57.08;94782.19;6176847;23;20418;-55
2022/09/15 01:27:51;;;;;;;3.73;3.10;;;18.80;90.50;;;19.28;57.03;94789.56;6177135;23;20539;-55
2022/09/15 01:30:21;;;;;;;3.50;2.57;;;18.80;90.30;;;19.24;56.24;94794.47;6056669;23;20452;-57
2022/09/15 01:33:08;;;;;;;11.83;3.60;;;18.80;90.00;;;19.19;55.86;94780.88;6156990;23;20786;-56
2022/09/15 01:35:49;;;;;;;8.27;4.10;;;18.70;89.50;;;19.14;56.38;94780.66;6177415;23;20969;-57
2022/09/15 01:38:38;;;;;;;14.67;4.80;;;18.70;89.70;;;19.12;56.06;94785.34;6177299;23;20460;-55
2022/09/15 01:41:08;;;;;;;12.77;5.50;;;18.70;90.40;;;19.10;56.76;94785.56;6177787;23;20394;-53
2022/09/15 01:43:36;;;;;;;12.03;5.90;;;18.70;90.20;;;19.09;56.49;94783.09;6176944;23;20428;-54
2022/09/15 01:46:05;;;;;;;17.73;6.70;;;18.60;90.40;;;19.07;56.86;94787.75;6177557;23;20398;-55
2022/09/15 01:48:32;;;;;;;15.27;5.93;;;18.60;90.40;;;19.06;56.59;94788.81;6177171;23;20467;-55
2022/09/15 01:51:02;;;;;;;13.77;5.60;;;18.60;90.40;;;19.05;56.87;94779.16;6176694;23;20983;-54
2022/09/15 01:53:29;;;;;;;15.27;5.93;;;18.50;90.80;;;19.05;56.71;94777.28;6176513;23;20922;-55
2022/09/15 01:56:01;;;;;;;10.33;5.83;;;18.60;90.70;;;19.06;56.97;94780.81;6176977;23;20914;-54
2022/09/15 01:58:28;;;;;;;9.87;5.70;;;18.60;90.40;;;19.05;56.94;94774.63;6176743;23;20402;-55
2022/09/15 02:00:58;;;;;;;12.27;5.93;;;18.60;90.80;;;19.07;57.23;94779.78;6177548;23;20410;-54
2022/09/15 02:03:32;;;;;;;9.33;4.80;;;18.60;91.00;;;19.07;57.11;94777.09;6176768;23;20393;-55
2022/09/15 02:06:02;;;;;;;10.13;4.70;;;18.60;90.60;;;19.07;56.89;94782.44;6177266;23;20412;-53
2022/09/15 02:08:36;;;;;;;11.67;5.60;;;18.60;90.40;;;19.06;57.13;94775.47;6177458;23;20650;-55
2022/09/15 02:11:11;;;;;;;8.13;5.33;;;18.60;90.90;;;19.06;56.87;94786.94;6177125;23;20488;-55
2022/09/15 02:13:44;;;;;;;16.20;4.80;;;18.60;90.80;;;19.06;56.93;94783.47;6176942;23;20464;-57
2022/09/15 02:16:18;;;;;;;11.30;4.77;;;18.60;90.70;;;19.04;56.81;94789.00;6177001;23;20695;-53
2022/09/15 02:19:03;;;;;;;10.83;4.80;;;18.60;90.90;;;19.04;57.11;94782.81;6177061;23;20539;-55
2022/09/15 02:21:35;;;;;;;16.13;5.07;;;18.60;90.90;;;19.03;56.74;94792.66;6176733;23;20393;-55
2022/09/15 02:24:06;;;;;;;13.20;5.27;;;18.60;90.90;;;19.02;57.33;94785.69;6177663;23;20736;-55
2022/09/15 02:26:34;;;;;;;13.47;4.90;;;18.60;90.90;;;19.01;57.23;94777.88;6177485;23;20397;-56
2022/09/15 02:29:05;;;;;;;8.00;4.17;;;18.50;91.10;;;19.03;58.01;94775.88;6176740;23;20445;-55
2022/09/15 02:31:33;;;;;;;8.00;4.37;;;18.60;91.30;;;19.03;57.40;94775.88;6176727;23;20468;-54
2022/09/15 02:34:05;;;;;;;9.30;5.23;;;18.60;91.30;;;19.01;57.45;94781.38;6176486;23;20433;-57
2022/09/15 02:36:32;;;;;;;5.20;4.70;;;18.50;91.20;;;19.01;57.34;94778.72;6176999;23;20397;-55
2022/09/15 02:39:03;;;;;;;6.70;4.40;;;18.60;91.30;;;19.01;57.61;94772.53;6176703;23;20817;-53
2022/09/15 02:41:31;;;;;;;12.20;5.33;;;18.60;91.10;;;19.02;57.39;94769.69;6176219;23;20552;-55
2022/09/15 02:43:58;;;;;;;6.23;4.97;;;18.60;91.30;;;19.03;57.76;94779.34;6176592;23;20426;-56
2022/09/15 02:46:25;;;;;;;11.17;5.63;;;18.60;91.60;;;19.04;58.33;94782.81;6176810;23;20405;-54
2022/09/15 02:48:53;;;;;;;7.43;4.90;;;18.60;91.70;;;19.05;58.30;94779.16;6176255;23;20954;-55
2022/09/15 02:51:21;;;;;;;8.87;5.87;;;18.60;91.80;;;19.05;57.73;94776.47;6176790;23;20485;-55
2022/09/15 02:53:49;;;;;;;8.40;4.80;;;18.60;91.70;;;19.04;57.98;94770.34;6176784;23;20479;-56
2022/09/15 02:56:17;;;;;;;11.73;4.67;;;18.60;91.90;;;19.03;57.84;94768.69;6176426;23;20405;-55
2022/09/15 02:58:44;;;;;;;14.17;4.90;;;18.60;91.60;;;19.05;58.43;94763.16;6175953;23;20957;-54
2022/09/15 03:01:14;;;;;;;7.93;4.60;;;18.60;91.80;;;19.05;57.90;94771.16;6176725;23;20435;-56
2022/09/15 03:03:42;;;;;;;6.07;4.60;;;18.60;91.90;;;19.05;58.04;94765.81;6176772;23;20472;-55
2022/09/15 03:06:20;;;;;;;10.57;4.50;;;18.60;91.90;;;19.05;57.98;94776.47;6177879;23;20406;-55
2022/09/15 03:08:50;;;;;;;10.27;4.63;;;18.60;92.10;;;19.03;57.71;94779.34;6179034;23;20425;-55
2022/09/15 03:11:18;;;;;;;8.13;5.10;;;18.60;91.80;;;19.01;57.69;94784.06;6178579;23;20436;-55
2022/09/15 03:13:45;;;;;;;7.27;4.63;;;18.60;92.00;;;19.01;58.62;94791.22;6178708;23;20506;-55
2022/09/15 03:16:15;;;;;;;4.73;4.33;;;18.60;92.10;;;18.99;58.62;94788.72;6178120;23;20431;-56
2022/09/15 03:18:42;;;;;;;4.50;4.10;;;18.50;92.00;;;18.97;57.97;94799.59;6178601;23;20475;-57
2022/09/15 03:21:10;;;;;;;15.07;5.63;;;18.50;92.10;;;18.96;57.90;94803.28;6178108;23;20405;-53
2022/09/15 03:23:38;;;;;;;9.50;5.20;;;18.50;92.00;;;18.93;58.23;94798.34;6178110;23;20429;-54
2022/09/15 03:26:07;;;;;;;9.00;5.23;;;18.50;91.90;;;18.92;58.78;94804.69;6178249;23;20416;-55
2022/09/15 03:28:34;;;;;;;10.63;4.87;;;18.50;92.30;;;18.91;58.90;94810.22;6178271;23;20398;-56
2022/09/15 03:31:02;;;;;;;8.43;4.83;;;18.50;92.40;;;18.89;58.58;94813.06;6178360;23;20751;-55
2022/09/15 03:33:29;;;;;;;11.03;5.03;;;18.40;92.30;;;18.88;58.15;94806.06;6177974;23;20413;-55
2022/09/15 03:35:57;;;;;;;11.63;4.47;;;18.40;92.30;;;18.84;58.65;94804.81;6178534;23;20468;-55
2022/09/15 03:38:24;;;;;;;6.40;4.00;;;18.40;92.20;;;18.83;58.71;94807.66;6178265;23;20405;-56
2022/09/15 03:40:59;;;;;;;12.83;4.73;;;18.40;92.30;;;18.79;58.90;94805.38;6178132;23;20436;-55
2022/09/15 03:43:28;;;;;;;6.87;4.80;;;18.40;92.30;;;18.77;58.82;94803.91;6178261;23;20483;-56
2022/09/15 03:45:56;;;;;;;16.57;4.50;;;18.30;92.40;;;18.74;58.33;94788.31;6178501;23;20402;-55
2022/09/15 03:48:23;;;;;;;14.03;5.17;;;18.30;92.30;;;18.72;58.84;94793.84;6178886;23;20428;-56
2022/09/15 03:50:51;;;;;;;12.57;4.67;;;18.30;92.40;;;18.70;58.22;94795.03;6178021;23;20449;-55
2022/09/15 03:53:19;;;;;;;14.70;5.70;;;18.20;92.30;;;18.68;58.69;94795.22;6177979;23;20860;-54
2022/09/15 03:55:46;;;;;;;10.87;4.73;;;18.20;92.20;;;18.64;58.89;94792.13;6178296;23;20402;-53
2022/09/15 03:58:13;;;;;;;9.97;5.90;;;18.20;92.40;;;18.64;58.86;94793.97;6177408;23;21034;-55
2022/09/15 04:00:42;;;;;;;13.37;5.20;;;18.20;92.60;;;18.61;58.79;94795.19;6176799;23;20425;-55
2022/09/15 04:03:10;;;;;;;8.00;4.77;;;18.20;92.60;;;18.59;58.58;94786.56;6177852;23;20754;-55
2022/09/15 04:05:37;;;;;;;11.37;6.57;;;18.20;92.70;;;18.56;58.96;94789.59;6177508;23;20417;-55
2022/09/15 04:08:05;;;;;;;6.20;5.13;;;18.20;92.70;;;18.55;59.48;94795.94;6178101;23;20406;-54
2022/09/15 04:10:32;;;;;;;13.40;5.93;;;18.10;92.90;;;18.54;59.09;94796.13;6177944;23;20437;-56
2022/09/15 04:13:02;;;;;;;25.97;14.57;;;18.10;92.90;;;18.51;59.21;94793.84;6178038;23;20441;-56
2022/09/15 04:15:30;;;;;;;19.47;7.30;;;18.10;92.90;;;18.48;58.64;94795.03;6178914;23;20433;-55
2022/09/15 04:17:59;;;;;;;10.60;6.20;;;18.00;92.80;;;18.46;59.44;94792.56;6178052;23;20410;-55
2022/09/15 04:20:26;;;;;;;10.13;6.90;;;18.00;92.90;;;18.45;58.67;94790.09;6177386;23;20636;-57
2022/09/15 04:22:53;;;;;;;20.30;7.13;;;18.10;92.90;;;18.43;59.32;94787.66;6177962;23;20785;-55
2022/09/15 04:25:20;;;;;;;16.03;6.90;;;18.00;92.90;;;18.40;58.97;94803.16;6176863;23;20457;-56
2022/09/15 04:27:48;;;;;;;17.30;7.67;;;18.00;92.90;;;18.41;59.49;94802.16;6176963;23;20937;-55
2022/09/15 04:30:15;;;;;;;12.97;6.17;;;18.00;93.20;;;18.43;58.97;94802.78;6177099;23;20430;-57
2022/09/15 04:32:42;;;;;;;17.23;6.77;;;18.00;93.20;;;18.45;59.16;94801.59;6175506;23;20809;-56
2022/09/15 04:35:11;;;;;;;17.50;6.60;;;18.00;93.10;;;18.47;59.62;94806.72;6176902;23;20784;-55
2022/09/15 04:37:38;;;;;;;13.60;7.13;;;18.00;93.60;;;18.50;60.14;94801.03;6176745;23;20915;-53
2022/09/15 04:40:08;;;;;;;12.33;6.73;;;18.00;93.80;;;18.53;59.63;94803.31;6176576;23;20443;-55
2022/09/15 04:42:36;;;;;;;17.30;7.90;;;18.10;94.10;;;18.56;59.29;94794.94;6176987;23;20416;-57
2022/09/15 04:45:03;;;;;;;28.67;9.63;;;18.10;93.50;;;18.56;59.80;94797.59;6177746;23;20824;-57
2022/09/15 04:47:31;;;;;;;17.03;7.73;;;18.10;93.40;;;18.57;59.18;94799.22;6177270;23;20409;-56
2022/09/15 04:49:58;;;;;;;19.90;7.53;;;18.20;93.40;;;18.62;59.63;94814.63;6177041;23;20437;-56
2022/09/15 04:52:27;;;;;;;16.80;7.13;;;18.20;93.70;;;18.65;59.17;94811.59;6176966;23;20448;-54
2022/09/15 04:54:54;;;;;;;14.47;6.63;;;18.20;93.70;;;18.69;59.16;94804.06;6176481;23;20429;-53
2022/09/15 04:57:21;;;;;;;15.50;6.43;;;18.20;93.60;;;18.73;58.96;94811.47;6176978;23;20485;-54
2022/09/15 04:59:48;;;;;;;13.57;6.70;;;18.20;93.40;;;18.76;58.90;94807.59;6176757;23;20425;-56
2022/09/15 05:02:16;;;;;;;12.80;6.93;;;18.30;93.10;;;18.81;58.70;94805.19;6176921;23;20402;-56
2022/09/15 05:04:43;;;;;;;26.60;6.93;;;18.30;93.00;;;18.88;59.12;94808.75;6177125;23;20514;-55
2022/09/15 05:07:11;;;;;;;13.43;6.47;;;18.40;93.40;;;18.94;59.35;94799.97;6177026;23;20460;-55
2022/09/15 05:09:39;;;;;;;12.47;5.57;;;18.50;93.40;;;19.01;59.26;94797.38;6177513;23;20448;-55
2022/09/15 05:12:07;;;;;;;18.70;6.17;;;18.60;93.50;;;19.08;58.99;94789.44;6176941;23;20445;-55
2022/09/15 05:14:35;;;;;;;20.30;6.77;;;18.60;93.20;;;19.15;58.04;94792.97;6177441;23;20787;-58
2022/09/15 05:17:02;;;;;;;18.13;6.50;;;18.70;92.90;;;19.19;57.75;94794.22;6177780;23;20412;-54
2022/09/15 05:19:29;;;;;;;13.07;6.57;;;18.70;92.60;;;19.23;57.79;94787.47;6177639;23;20524;-57
2022/09/15 05:21:57;;;;;;;18.03;7.63;;;18.80;92.60;;;19.28;57.57;94789.56;6177235;23;20406;-55
2022/09/15 05:24:24;;;;;;;15.30;5.90;;;18.80;92.60;;;19.32;58.11;94780.16;6178188;23;20449;-56
2022/09/15 05:26:52;;;;;;;11.80;6.37;;;18.80;92.60;;;19.39;58.08;94786.34;6177054;23;20476;-56
2022/09/15 05:29:20;;;;;;;13.43;6.80;;;18.90;92.40;;;19.45;57.64;94787.41;6176873;23;20433;-55
2022/09/15 05:31:47;;;;;;;26.83;7.67;;;19.00;92.60;;;19.51;57.83;94779.41;6176392;23;20445;-55
2022/09/15 05:34:15;;;;;;;22.33;6.93;;;19.00;92.70;;;19.60;58.05;94782.75;6176682;23;20434;-57
2022/09/15 05:36:42;;;;;;;24.93;7.80;;;19.10;92.80;;;19.67;57.85;94778.28;6176742;23;20417;-55
2022/09/15 05:39:10;;;;;;;22.50;7.10;;;19.20;92.40;;;19.78;57.84;94778.75;6176922;23;20472;-55
2022/09/15 05:41:37;;;;;;;31.20;7.43;;;19.30;92.60;;;19.92;57.52;94771.63;6177334;23;20728;-56
2022/09/15 05:44:05;;;;;;;21.67;7.80;;;19.40;92.60;;;20.04;57.21;94768.16;6177020;23;20977;-55
2022/09/15 05:46:33;;;;;;;12.40;7.17;;;19.50;92.20;;;20.16;57.19;94767.59;6177372;23;20402;-55
2022/09/15 05:49:00;;;;;;;14.20;7.50;;;19.60;91.90;;;20.31;56.69;94757.56;6176767;23;20461;-56
2022/09/15 05:51:29;;;;;;;14.33;6.50;;;19.80;91.80;;;20.46;56.12;94754.69;6176335;23;20445;-53
2022/09/15 05:53:56;;;;;;;15.17;7.97;;;19.90;91.40;;;20.63;55.86;94752.44;6176648;23;20413;-54
2022/09/15 05:56:23;;;;;;;12.13;5.50;;;20.00;91.10;;;20.81;55.01;94748.38;6176420;23;20413;-55
2022/09/15 05:58:51;;;;;;;24.67;4.73;;;20.20;90.80;;;20.93;54.55;94750.22;6176276;23;20449;-54
2022/09/15 06:01:21;;;;;;;17.80;5.23;;;20.30;90.10;;;21.04;54.19;94756.78;6176405;23;20951;-56
2022/09/15 06:03:48;;;;;;;10.97;5.60;;;20.50;89.70;;;21.21;54.02;94756.31;6175998;23;20437;-56
2022/09/15 06:06:16;;;;;;;29.37;5.13;;;20.60;89.20;;;21.40;53.52;94765.38;6176518;23;20401;-54
2022/09/15 06:08:45;;;;;;;14.73;5.93;;;20.70;88.00;;;21.62;53.16;94768.63;6176753;23;20443;-55
2022/09/15 06:11:13;;;;;;;5.67;4.37;;;21.00;87.20;;;21.82;52.50;94772.03;6176561;23;20464;-57
2022/09/15 06:13:41;;;;;;;24.00;5.47;;;21.20;86.20;;;22.02;52.09;94773.81;6176615;23;20429;-55
2022/09/15 06:16:09;;;;;;;15.63;5.80;;;21.40;85.90;;;22.24;52.20;94763.59;6176661;23;20405;-58
2022/09/15 06:18:39;;;;;;;10.80;6.83;;;21.60;86.50;;;22.46;51.84;94764.09;6177067;23;20754;-56
2022/09/15 06:21:08;;;;;;;17.43;7.10;;;21.80;85.00;;;22.69;51.47;94750.13;6176516;23;20413;-55
2022/09/15 06:23:36;;;;;;;29.80;7.23;;;22.00;84.80;;;22.90;51.54;94748.91;6175761;23;20402;-55
2022/09/15 06:26:08;;;;;;;17.77;6.40;;;22.20;84.40;;;23.09;51.56;94752.50;6176174;23;20405;-54
2022/09/15 06:28:36;;;;;;;12.60;6.23;;;22.40;84.30;;;23.32;51.31;94750.22;6176103;23;20453;-55
2022/09/15 06:31:03;;;;;;;29.80;7.03;;;22.60;83.60;;;23.54;50.12;94748.72;6175635;23;20429;-57
2022/09/15 06:33:31;;;;;;;14.00;5.50;;;22.80;83.50;;;23.77;49.68;94748.06;6176171;23;20945;-55
2022/09/15 06:36:02;;;;;;;12.70;5.00;;;23.10;81.10;;;24.01;49.08;94752.75;6176593;23;20397;-55
2022/09/15 06:38:30;;;;;;;13.93;4.77;;;23.30;79.30;;;24.23;48.95;94756.59;6175590;23;20417;-56
2022/09/15 06:40:58;;;;;;;13.10;4.70;;;23.60;78.40;;;24.48;47.92;94755.63;6177811;23;21080;-56
2022/09/15 06:43:26;;;;;;;11.13;6.03;;;23.80;77.30;;;24.72;47.12;94753.03;6177935;23;20452;-55
2022/09/15 06:45:53;;;;;;;12.47;6.50;;;24.00;75.90;;;24.98;47.06;94760.66;6178482;23;20400;-55
2022/09/15 06:48:20;;;;;;;6.97;3.90;;;24.30;75.30;;;25.17;46.21;94755.97;6177931;23;20432;-56
2022/09/15 06:50:54;;;;;;;14.50;3.60;;;24.50;73.90;;;25.33;45.75;94754.50;6178097;23;20468;-56
2022/09/15 06:53:23;;;;;;;7.80;3.40;;;24.60;71.50;;;25.52;45.40;94762.47;6177913;23;20393;-56
2022/09/15 06:55:50;;;;;;;7.57;3.80;;;24.80;71.20;;;25.75;44.76;94767.81;6178351;23;20926;-56
2022/09/15 06:58:18;;;;;;;11.83;4.57;;;25.00;70.00;;;26.02;44.42;94778.06;6178391;23;20885;-56
2022/09/15 07:00:45;;;;;;;6.43;4.10;;;25.30;69.20;;;26.33;44.24;94773.28;6178416;23;20428;-57
2022/09/15 07:03:13;;;;;;;7.67;4.10;;;25.60;68.60;;;26.61;43.99;94772.44;6177180;23;20921;-54
2022/09/15 07:05:40;;;;;;;7.23;3.60;;;25.90;68.00;;;26.81;43.44;94773.91;6178474;23;20456;-56
2022/09/15 07:08:08;;;;;;;6.00;3.67;;;26.10;66.80;;;27.04;43.08;94794.53;6178336;23;20493;-56
2022/09/15 07:10:37;;;;;;;9.77;3.37;;;26.30;66.20;;;27.29;42.64;94791.41;6178500;23;20460;-56
2022/09/15 07:13:04;;;;;;;13.23;3.30;;;26.50;65.00;;;27.48;42.31;94792.00;6178366;23;20447;-57
2022/09/15 07:15:31;;;;;;;19.53;5.13;;;26.70;64.00;;;27.70;41.84;94799.31;6179864;23;20738;-55
2022/09/15 07:17:59;;;;;;;12.40;4.37;;;26.90;63.10;;;27.90;41.38;94802.31;6179592;23;20735;-55
2022/09/15 07:20:27;;;;;;;5.30;3.43;;;27.10;62.30;;;28.21;41.31;94805.44;6178176;23;20429;-55
2022/09/15 07:22:54;;;;;;;14.10;3.50;;;27.30;61.80;;;28.59;40.59;94814.53;6178422;23;20491;-53
2022/09/15 07:25:21;;;;;;;10.50;3.50;;;27.70;60.90;;;29.02;40.65;94825.50;6178488;23;20428;-57
2022/09/15 07:27:50;;;;;;;8.30;3.90;;;28.10;60.40;;;29.42;39.69;94828.84;6177961;23;20467;-55
2022/09/15 07:30:17;;;;;;;7.20;4.33;;;28.60;59.60;;;29.73;38.81;94816.34;6177733;23;20801;-54
2022/09/15 07:32:44;;;;;;;11.00;3.30;;;28.90;58.40;;;30.07;39.02;94820.59;6175788;23;20448;-55
2022/09/15 07:35:12;;;;;;;11.60;3.90;;;29.20;58.10;;;30.47;38.81;94819.16;6178536;23;20432;-57
2022/09/15 07:37:39;;;;;;;11.33;3.60;;;29.50;57.40;;;30.88;38.37;94822.00;6177833;23;20865;-54
2022/09/15 07:40:08;;;;;;;6.50;2.83;;;30.00;56.70;;;31.29;37.99;94819.31;6177886;23;20499;-52
2022/09/15 07:42:35;;;;;;;10.10;4.00;;;30.40;56.10;;;31.59;36.71;94801.41;6177387;23;20669;-54
2022/09/15 07:45:05;;;;;;;18.93;3.67;;;30.80;54.70;;;31.75;36.70;94805.72;6178232;23;20259;-54
2022/09/15 07:47:32;;;;;;;3.93;3.57;;;31.00;53.70;;;32.02;36.62;94806.47;6178163;23;20240;-54
2022/09/15 07:50:00;;;;;;;6.65;3.30;;;31.40;53.40;;;32.34;35.90;94801.47;6177808;23;20212;-55
2022/09/15 07:52:27;;;;;;;7.70;3.10;;;31.70;52.50;;;32.65;35.21;94803.25;6176700;23;20207;-56
2022/09/15 07:54:54;;;;;;;15.00;7.07;;;32.10;51.60;;;32.99;35.45;94810.69;6177530;23;20268;-56
2022/09/15 07:57:22;;;;;;;12.10;4.68;;;32.40;51.40;;;33.21;34.96;94819.25;6177257;23;20631;-56
2022/09/15 07:59:49;;;;;;;7.82;3.55;;;32.60;50.90;;;33.40;34.15;94815.84;6177700;23;20267;-53
2022/09/15 08:02:18;;;;;;;5.65;3.45;;;32.80;50.30;;;33.59;34.55;94808.59;6176343;23;20245;-55
2022/09/15 08:04:46;;;;;;;5.43;3.20;;;33.00;49.90;;;33.82;34.23;94806.22;6176423;23;20194;-55
2022/09/15 08:07:13;;;;;;;7.05;3.35;;;33.20;49.40;;;34.08;34.36;94797.75;6177719;23;20174;-57
2022/09/15 08:09:40;;;;;;;6.13;2.30;;;33.50;49.10;;;34.27;33.37;94795.91;6177232;23;20200;-53
2022/09/15 08:12:08;;;;;;;9.63;3.63;;;33.70;48.30;;;34.42;32.33;94799.53;6176911;23;20208;-56
2022/09/15 08:14:36;;;;;;;9.38;2.80;;;33.80;46.80;;;34.57;32.36;94791.16;6151237;23;20666;-56
2022/09/15 08:17:04;;;;;;;5.82;3.30;;;34.10;46.90;;;34.65;33.32;94789.69;6176855;23;20228;-54
2022/09/15 08:19:34;;;;;;;8.15;2.70;;;34.20;46.70;;;34.69;32.54;94785.25;6177810;23;20917;-56
2022/09/15 08:22:01;;;;;;;17.90;3.65;;;34.30;46.30;;;34.71;32.83;94784.97;6176697;23;20229;-57
2022/09/15 08:24:29;;;;;;;30.52;4.75;;;34.30;46.00;;;34.75;31.96;94775.91;6176746;23;20643;-56
2022/09/15 08:26:56;;;;;;;13.63;4.50;;;34.30;45.90;;;34.79;32.11;94771.47;6176987;23;20606;-57
2022/09/15 08:29:23;;;;;;;10.90;3.88;;;34.40;45.40;;;34.83;31.50;94767.03;6176512;23;20197;-56
2022/09/15 08:31:51;;;;;;;11.63;3.70;;;34.40;45.10;;;34.84;32.09;94773.31;6176312;23;20323;-55
2022/09/15 08:34:18;;;;;;;17.15;13.23;;;34.40;45.20;;;34.74;32.18;94767.97;6177221;23;20204;-56
2022/09/15 08:36:47;;;;;;;12.93;3.00;;;34.30;44.50;;;34.67;32.03;94768.34;6177783;23;20173;-55
2022/09/15 08:39:15;;;;;;;11.77;3.75;;;34.20;44.90;;;34.71;31.98;94765.84;6177371;23;20653;-57
2022/09/15 08:41:45;;;;;;;5.90;3.35;;;34.10;45.20;;;34.80;32.00;94758.63;6177822;23;20229;-56
2022/09/15 08:44:27;;;;;;;11.30;3.80;;;34.10;45.20;;;34.82;31.34;94764.59;6176717;23;20225;-55
2022/09/15 08:47:01;;;;;;;7.80;3.65;;;34.10;44.80;;;34.78;31.75;94758.09;6177373;23;20161;-55
2022/09/15 08:49:31;;;;;;;21.95;4.15;;;34.10;44.90;;;34.81;32.03;94750.13;6176873;23;20260;-55
2022/09/15 08:52:05;;;;;;;8.00;3.58;;;34.00;44.70;;;34.95;31.29;94750.19;6177486;23;20190;-57
2022/09/15 08:54:32;;;;;;;8.40;3.65;;;34.20;44.80;;;35.12;31.47;94746.09;6177563;23;20216;-57
2022/09/15 08:57:00;;;;;;;9.65;3.95;;;34.30;44.70;;;35.23;31.75;94744.84;6177687;23;20169;-55
2022/09/15 08:59:31;;;;;;;13.48;3.60;;;34.40;44.30;;;35.26;31.12;94737.97;6177011;23;20667;-56
2022/09/15 09:02:38;;;;;;;9.43;3.50;;;34.40;44.10;;;35.24;30.26;94735.50;6175945;23;20170;-55
2022/09/15 09:05:30;;;;;;;13.10;3.70;;;34.40;43.80;;;35.18;31.17;94726.59;6177552;23;20185;-55
2022/09/15 09:08:14;;;;;;;20.35;4.20;;;34.40;44.10;;;35.07;30.75;94718.84;6177611;23;20173;-56
2022/09/15 09:10:45;;;;;;;5.85;3.75;;;34.30;44.00;;;34.94;31.09;94723.97;6177182;23;20267;-56
2022/09/15 09:13:22;;;;;;;10.82;4.30;;;34.20;44.00;;;34.93;30.72;94724.25;6177212;23;20201;-53
2022/09/15 09:16:03;;;;;;;11.35;3.33;;;34.10;44.00;;;34.92;29.72;94723.47;6176822;23;20166;-56
2022/09/15 09:19:12;;;;;;;11.65;3.13;;;34.10;43.90;;;34.80;30.15;94715.72;6177472;23;20162;-56
2022/09/15 09:21:40;;;;;;;11.02;3.00;;;34.00;43.30;;;34.76;30.54;94713.88;6177791;23;20162;-58
2022/09/15 09:24:14;;;;;;;14.20;3.17;;;34.00;43.80;;;34.59;30.38;94704.25;6177220;23;20189;-56
2022/09/15 09:26:42;;;;;;;10.70;3.55;;;33.80;43.30;;;34.37;31.37;94701.31;6177481;23;20619;-54
2022/09/15 09:29:13;;;;;;;16.40;3.53;;;33.60;43.60;;;34.18;30.96;94702.06;6176938;23;20216;-54
2022/09/15 09:31:41;;;;;;;10.77;4.28;;;33.50;43.70;;;34.05;31.14;94698.16;6177014;23;20246;-55
2022/09/15 09:34:19;;;;;;;17.33;4.95;;;33.30;44.10;;;33.99;30.79;94687.59;6176816;23;20232;-55
2022/09/15 09:36:47;;;;;;;9.63;3.53;;;33.20;43.90;;;34.05;31.92;94695.44;6177002;23;20162;-55
2022/09/15 09:39:15;;;;;;;10.02;3.47;;;33.20;44.50;;;34.09;30.94;94685.53;6176907;23;20248;-55
2022/09/15 09:41:43;;;;;;;12.77;4.05;;;33.30;44.30;;;34.12;31.35;94695.06;6176924;23;20173;-58
2022/09/15 09:44:12;;;;;;;16.25;3.40;;;33.30;44.20;;;34.12;31.19;94695.06;6176817;23;20252;-56
2022/09/15 09:46:40;;;;;;;20.40;4.00;;;33.30;43.60;;;34.11;31.19;94697.00;6177281;23;20515;-55
2022/09/15 09:49:15;;;;;;;13.43;4.13;;;33.30;43.60;;;34.17;31.08;94691.44;6176850;23;20189;-56
2022/09/15 09:51:51;;;;;;;8.65;4.05;;;33.30;43.60;;;34.25;30.83;94691.63;6177609;23;20235;-57
2022/09/15 09:54:21;;;;;;;12.05;3.40;;;33.40;43.80;;;34.33;31.29;94700.25;6177162;23;20678;-55
2022/09/15 09:56:49;;;;;;;18.13;4.30;;;33.50;43.90;;;34.34;30.72;94701.91;6176746;23;20170;-56
2022/09/15 09:59:40;;;;;;;25.20;4.10;;;33.50;43.60;;;34.28;31.12;94693.75;6176655;23;20490;-57
2022/09/15 10:02:15;;;;;;;12.82;3.22;;;33.50;43.30;;;34.21;30.60;94692.50;6177219;23;20166;-52
2022/09/15 10:04:43;;;;;;;9.95;3.95;;;33.50;43.60;;;34.18;30.82;94685.69;6176636;23;20667;-56
2022/09/15 10:07:11;;;;;;;14.25;4.22;;;33.40;43.40;;;34.12;31.31;94681.41;6177636;23;20170;-56
2022/09/15 10:09:40;;;;;;;20.25;4.57;;;33.30;43.30;;;34.08;31.06;94675.75;6176832;23;20551;-55
2022/09/15 10:12:07;;;;;;;9.98;4.20;;;33.30;43.40;;;34.11;31.27;94677.03;6177190;23;20170;-55
2022/09/15 10:14:36;;;;;;;21.55;3.85;;;33.30;43.50;;;34.15;30.56;94675.38;6176483;23;20190;-55
2022/09/15 10:17:06;;;;;;;7.35;3.63;;;33.30;43.40;;;34.21;30.82;94670.66;6176549;23;20169;-55
2022/09/15 10:19:36;;;;;;;11.48;3.63;;;33.40;43.40;;;34.25;30.62;94677.97;6175996;23;20196;-54
2022/09/15 10:22:03;;;;;;;12.10;3.80;;;33.40;43.00;;;34.30;30.72;94675.19;6176980;23;20165;-56
2022/09/15 10:24:38;;;;;;;17.67;3.22;;;33.50;43.00;;;34.45;31.15;94670.59;6176761;23;20185;-56
2022/09/15 10:27:29;;;;;;;7.18;3.20;;;33.60;43.30;;;34.65;29.69;94664.81;6176614;23;20169;-56